Аэропорт: Челябинск. Челябинск

ICAO: USCC

METAR:
2021-04-21 20:00:00
USCC 212000Z 16003MPS CAVOK 06/M07 Q1031 R27/000060 NOSIG RMK QFE753
METAR:
2021-04-21 16:58:00
TAF USCC 211658Z 2118/2218 16003G08MPS CAVOK TEMPO 2206/2218 18005G13MPS